sensor_id;sensor_type;location;lat;lon;timestamp;temperature;humidity
3790;DHT22;1910;49.042;9.028;2022-07-23T00:00:16;24.90;99.90
3790;DHT22;1910;49.042;9.028;2022-07-23T00:02:42;24.70;99.90
3790;DHT22;1910;49.042;9.028;2022-07-23T00:05:08;24.70;99.90
3790;DHT22;1910;49.042;9.028;2022-07-23T00:07:37;24.70;99.90
3790;DHT22;1910;49.042;9.028;2022-07-23T00:10:03;24.70;99.90
3790;DHT22;1910;49.042;9.028;2022-07-23T00:12:29;24.70;99.90
3790;DHT22;1910;49.042;9.028;2022-07-23T00:17:20;24.70;99.90
3790;DHT22;1910;49.042;9.028;2022-07-23T00:19:46;25.30;99.90
3790;DHT22;1910;49.042;9.028;2022-07-23T00:22:11;24.60;99.90
3790;DHT22;1910;49.042;9.028;2022-07-23T00:24:39;24.50;99.90
3790;DHT22;1910;49.042;9.028;2022-07-23T00:27:05;25.10;99.90
3790;DHT22;1910;49.042;9.028;2022-07-23T00:29:30;24.50;99.90
3790;DHT22;1910;49.042;9.028;2022-07-23T00:31:56;24.40;99.90
3790;DHT22;1910;49.042;9.028;2022-07-23T00:34:21;24.40;99.90
3790;DHT22;1910;49.042;9.028;2022-07-23T00:36:47;24.40;99.90
3790;DHT22;1910;49.042;9.028;2022-07-23T00:39:12;24.40;99.90
3790;DHT22;1910;49.042;9.028;2022-07-23T00:41:38;24.20;99.90
3790;DHT22;1910;49.042;9.028;2022-07-23T00:44:21;24.40;99.90
3790;DHT22;1910;49.042;9.028;2022-07-23T00:46:56;24.20;99.90
3790;DHT22;1910;49.042;9.028;2022-07-23T00:49:27;24.20;99.90
3790;DHT22;1910;49.042;9.028;2022-07-23T00:54:22;24.10;99.90
3790;DHT22;1910;49.042;9.028;2022-07-23T00:56:48;24.60;99.90
3790;DHT22;1910;49.042;9.028;2022-07-23T00:59:14;23.80;99.90
3790;DHT22;1910;49.042;9.028;2022-07-23T01:01:40;23.80;99.90
3790;DHT22;1910;49.042;9.028;2022-07-23T01:04:06;23.70;99.90
3790;DHT22;1910;49.042;9.028;2022-07-23T01:06:35;23.70;99.90
3790;DHT22;1910;49.042;9.028;2022-07-23T01:09:03;23.70;99.90
3790;DHT22;1910;49.042;9.028;2022-07-23T01:11:30;23.60;99.90
3790;DHT22;1910;49.042;9.028;2022-07-23T01:13:56;23.70;99.90
3790;DHT22;1910;49.042;9.028;2022-07-23T01:16:21;23.60;99.90
3790;DHT22;1910;49.042;9.028;2022-07-23T01:21:13;23.50;99.90
3790;DHT22;1910;49.042;9.028;2022-07-23T01:23:40;23.50;99.90
3790;DHT22;1910;49.042;9.028;2022-07-23T01:26:05;23.50;99.90
3790;DHT22;1910;49.042;9.028;2022-07-23T01:40:40;23.30;99.90
3790;DHT22;1910;49.042;9.028;2022-07-23T01:43:06;23.30;99.90
3790;DHT22;1910;49.042;9.028;2022-07-23T01:47:57;23.10;99.90
3790;DHT22;1910;49.042;9.028;2022-07-23T01:50:23;23.00;99.90
3790;DHT22;1910;49.042;9.028;2022-07-23T01:52:48;23.00;99.90
3790;DHT22;1910;49.042;9.028;2022-07-23T01:57:40;22.90;99.90
3790;DHT22;1910;49.042;9.028;2022-07-23T02:00:07;22.90;99.90
3790;DHT22;1910;49.042;9.028;2022-07-23T02:02:32;22.90;99.90
3790;DHT22;1910;49.042;9.028;2022-07-23T02:04:58;22.80;99.90
3790;DHT22;1910;49.042;9.028;2022-07-23T02:24:25;23.00;99.90
3790;DHT22;1910;49.042;9.028;2022-07-23T02:41:28;22.90;99.90
3790;DHT22;1910;49.042;9.028;2022-07-23T02:43:54;23.90;99.90
3790;DHT22;1910;49.042;9.028;2022-07-23T02:46:19;22.80;99.90
3790;DHT22;1910;49.042;9.028;2022-07-23T02:48:45;22.80;99.90
3790;DHT22;1910;49.042;9.028;2022-07-23T02:51:10;23.80;99.90
3790;DHT22;1910;49.042;9.028;2022-07-23T03:08:11;22.90;99.90
3790;DHT22;1910;49.042;9.028;2022-07-23T03:10:37;22.90;99.90
3790;DHT22;1910;49.042;9.028;2022-07-23T03:13:02;22.80;99.90
3790;DHT22;1910;49.042;9.028;2022-07-23T03:15:28;22.90;99.90
3790;DHT22;1910;49.042;9.028;2022-07-23T03:17:53;22.90;99.90
3790;DHT22;1910;49.042;9.028;2022-07-23T03:20:19;22.90;99.90
3790;DHT22;1910;49.042;9.028;2022-07-23T03:22:44;22.80;99.90
3790;DHT22;1910;49.042;9.028;2022-07-23T03:27:36;22.60;99.90
3790;DHT22;1910;49.042;9.028;2022-07-23T03:44:39;22.00;99.90
3790;DHT22;1910;49.042;9.028;2022-07-23T04:01:42;21.70;99.90
3790;DHT22;1910;49.042;9.028;2022-07-23T04:04:07;21.70;99.90
3790;DHT22;1910;49.042;9.028;2022-07-23T04:06:34;21.60;99.90
3790;DHT22;1910;49.042;9.028;2022-07-23T04:09:00;21.60;99.90
3790;DHT22;1910;49.042;9.028;2022-07-23T04:11:25;21.60;99.90
3790;DHT22;1910;49.042;9.028;2022-07-23T04:26:01;22.30;99.90
3790;DHT22;1910;49.042;9.028;2022-07-23T04:28:27;22.60;99.90
3790;DHT22;1910;49.042;9.028;2022-07-23T04:30:52;22.50;99.90
3790;DHT22;1910;49.042;9.028;2022-07-23T04:35:44;22.80;99.90
3790;DHT22;1910;49.042;9.028;2022-07-23T04:43:01;23.20;99.90
3790;DHT22;1910;49.042;9.028;2022-07-23T04:52:47;22.70;99.90
3790;DHT22;1910;49.042;9.028;2022-07-23T04:57:39;22.60;99.90
3790;DHT22;1910;49.042;9.028;2022-07-23T05:00:06;22.50;99.90
3790;DHT22;1910;49.042;9.028;2022-07-23T05:02:32;22.50;99.90
3790;DHT22;1910;49.042;9.028;2022-07-23T05:04:58;22.60;99.90
3790;DHT22;1910;49.042;9.028;2022-07-23T05:07:23;22.70;99.90
3790;DHT22;1910;49.042;9.028;2022-07-23T05:09:49;22.60;99.90
3790;DHT22;1910;49.042;9.028;2022-07-23T05:19:35;22.50;99.90
3790;DHT22;1910;49.042;9.028;2022-07-23T05:22:01;22.30;99.90
3790;DHT22;1910;49.042;9.028;2022-07-23T05:24:26;22.20;99.90
3790;DHT22;1910;49.042;9.028;2022-07-23T05:26:52;22.10;99.90
3790;DHT22;1910;49.042;9.028;2022-07-23T05:29:18;22.10;99.90
3790;DHT22;1910;49.042;9.028;2022-07-23T05:31:43;22.20;99.90
3790;DHT22;1910;49.042;9.028;2022-07-23T05:36:35;22.10;99.90
3790;DHT22;1910;49.042;9.028;2022-07-23T05:39:01;22.10;99.90
3790;DHT22;1910;49.042;9.028;2022-07-23T05:41:26;22.10;99.90
3790;DHT22;1910;49.042;9.028;2022-07-23T05:43:52;22.10;99.90
3790;DHT22;1910;49.042;9.028;2022-07-23T05:46:17;21.90;99.90
3790;DHT22;1910;49.042;9.028;2022-07-23T05:53:37;21.20;99.90
3790;DHT22;1910;49.042;9.028;2022-07-23T05:56:03;21.40;99.90
3790;DHT22;1910;49.042;9.028;2022-07-23T05:58:29;21.30;99.90
3790;DHT22;1910;49.042;9.028;2022-07-23T06:00:54;21.10;99.90
3790;DHT22;1910;49.042;9.028;2022-07-23T06:03:20;20.80;99.90
3790;DHT22;1910;49.042;9.028;2022-07-23T06:08:12;20.40;99.90
3790;DHT22;1910;49.042;9.028;2022-07-23T06:10:37;20.50;99.90
3790;DHT22;1910;49.042;9.028;2022-07-23T06:13:03;20.40;99.90
3790;DHT22;1910;49.042;9.028;2022-07-23T06:15:28;20.50;99.90
3790;DHT22;1910;49.042;9.028;2022-07-23T06:17:55;20.40;99.90
3790;DHT22;1910;49.042;9.028;2022-07-23T06:20:21;20.40;99.90
3790;DHT22;1910;49.042;9.028;2022-07-23T06:22:46;20.60;99.90
3790;DHT22;1910;49.042;9.028;2022-07-23T06:27:38;20.60;99.90
3790;DHT22;1910;49.042;9.028;2022-07-23T06:30:03;20.70;99.90
3790;DHT22;1910;49.042;9.028;2022-07-23T06:32:29;21.50;99.90
3790;DHT22;1910;49.042;9.028;2022-07-23T06:34:55;22.30;99.90
3790;DHT22;1910;49.042;9.028;2022-07-23T06:37:20;22.60;99.90
3790;DHT22;1910;49.042;9.028;2022-07-23T06:42:12;22.00;99.90
3790;DHT22;1910;49.042;9.028;2022-07-23T06:51:55;20.60;99.90
3790;DHT22;1910;49.042;9.028;2022-07-23T06:56:47;20.20;99.90
3790;DHT22;1910;49.042;9.028;2022-07-23T06:59:12;20.00;99.90
3790;DHT22;1910;49.042;9.028;2022-07-23T07:01:38;20.00;99.90
3790;DHT22;1910;49.042;9.028;2022-07-23T07:04:03;20.00;99.90
3790;DHT22;1910;49.042;9.028;2022-07-23T07:06:29;19.90;99.90
3790;DHT22;1910;49.042;9.028;2022-07-23T07:08:54;19.90;99.90
3790;DHT22;1910;49.042;9.028;2022-07-23T07:11:22;19.90;99.90
3790;DHT22;1910;49.042;9.028;2022-07-23T07:13:49;20.00;99.90
3790;DHT22;1910;49.042;9.028;2022-07-23T07:16:14;20.00;99.90
3790;DHT22;1910;49.042;9.028;2022-07-23T07:28:29;20.40;99.90
3790;DHT22;1910;49.042;9.028;2022-07-23T07:35:47;21.10;99.90
3790;DHT22;1910;49.042;9.028;2022-07-23T07:40:38;23.80;99.90
3790;DHT22;1910;49.042;9.028;2022-07-23T07:43:04;23.80;99.90
3790;DHT22;1910;49.042;9.028;2022-07-23T07:45:29;25.00;99.90
3790;DHT22;1910;49.042;9.028;2022-07-23T07:47:55;26.30;99.90
3790;DHT22;1910;49.042;9.028;2022-07-23T07:50:21;27.40;99.90
3790;DHT22;1910;49.042;9.028;2022-07-23T08:00:07;24.70;99.90
3790;DHT22;1910;49.042;9.028;2022-07-23T08:02:47;24.00;99.90
3790;DHT22;1910;49.042;9.028;2022-07-23T08:05:13;23.30;99.90
3790;DHT22;1910;49.042;9.028;2022-07-23T08:07:39;23.10;99.90
3790;DHT22;1910;49.042;9.028;2022-07-23T08:10:07;22.90;99.90
3790;DHT22;1910;49.042;9.028;2022-07-23T08:12:48;22.60;99.90
3790;DHT22;1910;49.042;9.028;2022-07-23T08:15:16;22.50;99.90
3790;DHT22;1910;49.042;9.028;2022-07-23T08:17:42;22.50;99.90
3790;DHT22;1910;49.042;9.028;2022-07-23T08:20:09;22.60;99.90
3790;DHT22;1910;49.042;9.028;2022-07-23T08:22:47;22.70;99.90
3790;DHT22;1910;49.042;9.028;2022-07-23T08:25:13;22.70;99.90
3790;DHT22;1910;49.042;9.028;2022-07-23T08:27:39;22.60;99.90
3790;DHT22;1910;49.042;9.028;2022-07-23T08:30:05;22.70;99.90
3790;DHT22;1910;49.042;9.028;2022-07-23T08:37:23;23.30;99.90
3790;DHT22;1910;49.042;9.028;2022-07-23T08:39:48;23.20;99.90
3790;DHT22;1910;49.042;9.028;2022-07-23T08:42:14;23.40;99.90
3790;DHT22;1910;49.042;9.028;2022-07-23T08:44:43;24.00;99.90
3790;DHT22;1910;49.042;9.028;2022-07-23T08:52:02;24.40;99.90
3790;DHT22;1910;49.042;9.028;2022-07-23T08:54:28;24.50;99.90
3790;DHT22;1910;49.042;9.028;2022-07-23T08:56:54;24.50;99.90
3790;DHT22;1910;49.042;9.028;2022-07-23T09:04:11;24.60;99.90
3790;DHT22;1910;49.042;9.028;2022-07-23T09:06:39;24.70;99.90
3790;DHT22;1910;49.042;9.028;2022-07-23T09:09:18;25.50;99.90
3790;DHT22;1910;49.042;9.028;2022-07-23T09:12:02;28.30;99.90
3790;DHT22;1910;49.042;9.028;2022-07-23T09:14:42;33.60;99.90
3790;DHT22;1910;49.042;9.028;2022-07-23T09:17:15;35.40;99.90
3790;DHT22;1910;49.042;9.028;2022-07-23T09:19:42;37.40;99.50
3790;DHT22;1910;49.042;9.028;2022-07-23T09:22:27;37.30;90.30
3790;DHT22;1910;49.042;9.028;2022-07-23T09:27:54;38.40;82.00
3790;DHT22;1910;49.042;9.028;2022-07-23T09:30:27;39.10;76.20
3790;DHT22;1910;49.042;9.028;2022-07-23T09:33:05;39.40;71.60
3790;DHT22;1910;49.042;9.028;2022-07-23T09:35:50;39.60;72.70
3790;DHT22;1910;49.042;9.028;2022-07-23T09:38:17;40.00;69.40
3790;DHT22;1910;49.042;9.028;2022-07-23T09:40:44;38.80;66.90
3790;DHT22;1910;49.042;9.028;2022-07-23T09:48:15;36.80;71.30
3790;DHT22;1910;49.042;9.028;2022-07-23T09:50:44;37.10;74.30
3790;DHT22;1910;49.042;9.028;2022-07-23T09:53:23;38.30;72.10
3790;DHT22;1910;49.042;9.028;2022-07-23T09:58:15;38.20;66.90
3790;DHT22;1910;49.042;9.028;2022-07-23T10:00:42;37.10;68.60
3790;DHT22;1910;49.042;9.028;2022-07-23T10:03:11;36.80;72.20
3790;DHT22;1910;49.042;9.028;2022-07-23T10:08:03;35.40;72.90
3790;DHT22;1910;49.042;9.028;2022-07-23T10:10:30;36.40;74.30
3790;DHT22;1910;49.042;9.028;2022-07-23T10:17:50;35.60;71.10
3790;DHT22;1910;49.042;9.028;2022-07-23T10:25:32;34.50;73.60
3790;DHT22;1910;49.042;9.028;2022-07-23T10:28:20;34.30;76.90
3790;DHT22;1910;49.042;9.028;2022-07-23T10:31:20;32.60;79.40
3790;DHT22;1910;49.042;9.028;2022-07-23T10:34:07;32.10;81.30
3790;DHT22;1910;49.042;9.028;2022-07-23T10:37:17;31.50;85.30
3790;DHT22;1910;49.042;9.028;2022-07-23T10:40:12;30.10;83.10
3790;DHT22;1910;49.042;9.028;2022-07-23T10:42:39;28.10;91.60
3790;DHT22;1910;49.042;9.028;2022-07-23T10:45:27;27.80;93.20
3790;DHT22;1910;49.042;9.028;2022-07-23T10:47:54;27.60;96.80
3790;DHT22;1910;49.042;9.028;2022-07-23T10:50:24;27.40;98.10
3790;DHT22;1910;49.042;9.028;2022-07-23T10:58:00;27.20;99.90
3790;DHT22;1910;49.042;9.028;2022-07-23T11:00:28;27.20;99.90
3790;DHT22;1910;49.042;9.028;2022-07-23T11:03:05;27.30;99.90
3790;DHT22;1910;49.042;9.028;2022-07-23T11:05:50;27.50;99.90
3790;DHT22;1910;49.042;9.028;2022-07-23T11:08:17;27.80;99.90
3790;DHT22;1910;49.042;9.028;2022-07-23T11:10:54;27.90;99.90
3790;DHT22;1910;49.042;9.028;2022-07-23T11:13:35;27.90;99.90
3790;DHT22;1910;49.042;9.028;2022-07-23T11:24:14;31.70;99.90
3790;DHT22;1910;49.042;9.028;2022-07-23T11:31:57;28.90;98.20
3790;DHT22;1910;49.042;9.028;2022-07-23T11:37:06;28.10;95.60
3790;DHT22;1910;49.042;9.028;2022-07-23T11:39:32;27.90;96.70
3790;DHT22;1910;49.042;9.028;2022-07-23T11:42:00;27.90;95.40
3790;DHT22;1910;49.042;9.028;2022-07-23T11:44:34;27.90;95.20
3790;DHT22;1910;49.042;9.028;2022-07-23T11:47:03;28.40;98.90
3790;DHT22;1910;49.042;9.028;2022-07-23T11:49:29;28.90;99.00
3790;DHT22;1910;49.042;9.028;2022-07-23T11:52:14;29.30;97.90
3790;DHT22;1910;49.042;9.028;2022-07-23T11:55:07;28.90;97.50
3790;DHT22;1910;49.042;9.028;2022-07-23T11:57:36;28.60;98.10
3790;DHT22;1910;49.042;9.028;2022-07-23T12:02:32;28.20;99.90
3790;DHT22;1910;49.042;9.028;2022-07-23T12:04:58;26.20;99.30
3790;DHT22;1910;49.042;9.028;2022-07-23T12:07:35;28.00;99.90
3790;DHT22;1910;49.042;9.028;2022-07-23T12:10:15;27.90;99.90
3790;DHT22;1910;49.042;9.028;2022-07-23T12:12:48;27.70;99.50
3790;DHT22;1910;49.042;9.028;2022-07-23T12:15:16;27.70;99.70
3790;DHT22;1910;49.042;9.028;2022-07-23T12:17:44;27.60;99.90
3790;DHT22;1910;49.042;9.028;2022-07-23T12:20:14;27.90;99.90
3790;DHT22;1910;49.042;9.028;2022-07-23T12:22:46;28.20;98.70
3790;DHT22;1910;49.042;9.028;2022-07-23T12:25:20;28.20;99.00
3790;DHT22;1910;49.042;9.028;2022-07-23T12:27:46;28.30;99.60
3790;DHT22;1910;49.042;9.028;2022-07-23T12:30:26;28.40;99.20
3790;DHT22;1910;49.042;9.028;2022-07-23T12:32:54;28.00;98.80
3790;DHT22;1910;49.042;9.028;2022-07-23T12:35:20;28.10;99.30
3790;DHT22;1910;49.042;9.028;2022-07-23T12:37:48;28.60;97.20
3790;DHT22;1910;49.042;9.028;2022-07-23T12:40:41;28.60;97.40
3790;DHT22;1910;49.042;9.028;2022-07-23T12:43:10;28.10;95.90
3790;DHT22;1910;49.042;9.028;2022-07-23T12:45:48;28.20;96.50
3790;DHT22;1910;49.042;9.028;2022-07-23T12:48:19;28.40;96.10
3790;DHT22;1910;49.042;9.028;2022-07-23T12:50:53;28.40;94.90
3790;DHT22;1910;49.042;9.028;2022-07-23T12:53:32;28.60;95.70
3790;DHT22;1910;49.042;9.028;2022-07-23T12:56:21;28.60;93.20
3790;DHT22;1910;49.042;9.028;2022-07-23T12:58:54;28.40;94.90
3790;DHT22;1910;49.042;9.028;2022-07-23T13:01:28;28.50;95.50
3790;DHT22;1910;49.042;9.028;2022-07-23T13:04:06;28.40;95.00
3790;DHT22;1910;49.042;9.028;2022-07-23T13:06:43;28.50;95.20
3790;DHT22;1910;49.042;9.028;2022-07-23T13:09:11;28.30;95.10
3790;DHT22;1910;49.042;9.028;2022-07-23T13:11:38;28.60;95.70
3790;DHT22;1910;49.042;9.028;2022-07-23T13:16:31;28.90;93.90
3790;DHT22;1910;49.042;9.028;2022-07-23T13:18:58;29.00;93.40
3790;DHT22;1910;49.042;9.028;2022-07-23T13:21:24;29.00;92.90
3790;DHT22;1910;49.042;9.028;2022-07-23T13:23:50;29.00;89.30
3790;DHT22;1910;49.042;9.028;2022-07-23T13:26:16;29.20;91.20
3790;DHT22;1910;49.042;9.028;2022-07-23T13:31:08;29.70;91.50
3790;DHT22;1910;49.042;9.028;2022-07-23T13:33:34;29.80;92.10
3790;DHT22;1910;49.042;9.028;2022-07-23T13:43:23;30.10;89.70
3790;DHT22;1910;49.042;9.028;2022-07-23T13:45:49;30.00;90.10
3790;DHT22;1910;49.042;9.028;2022-07-23T13:48:16;29.80;88.60
3790;DHT22;1910;49.042;9.028;2022-07-23T13:50:43;29.40;87.20
3790;DHT22;1910;49.042;9.028;2022-07-23T13:53:11;29.80;90.00
3790;DHT22;1910;49.042;9.028;2022-07-23T13:55:38;30.20;87.80
3790;DHT22;1910;49.042;9.028;2022-07-23T13:58:05;29.80;85.90
3790;DHT22;1910;49.042;9.028;2022-07-23T14:00:32;29.40;86.40
3790;DHT22;1910;49.042;9.028;2022-07-23T14:02:59;29.40;89.80
3790;DHT22;1910;49.042;9.028;2022-07-23T14:05:25;29.50;90.70
3790;DHT22;1910;49.042;9.028;2022-07-23T14:07:50;28.80;90.20
3790;DHT22;1910;49.042;9.028;2022-07-23T14:10:18;28.80;90.60
3790;DHT22;1910;49.042;9.028;2022-07-23T14:12:45;29.40;91.20
3790;DHT22;1910;49.042;9.028;2022-07-23T14:15:11;29.40;91.50
3790;DHT22;1910;49.042;9.028;2022-07-23T14:17:40;29.60;91.60
3790;DHT22;1910;49.042;9.028;2022-07-23T14:20:07;29.50;89.60
3790;DHT22;1910;49.042;9.028;2022-07-23T14:22:33;29.50;90.40
3790;DHT22;1910;49.042;9.028;2022-07-23T14:24:59;29.60;91.30
3790;DHT22;1910;49.042;9.028;2022-07-23T14:27:26;29.60;90.80
3790;DHT22;1910;49.042;9.028;2022-07-23T14:29:53;28.80;91.10
3790;DHT22;1910;49.042;9.028;2022-07-23T14:34:45;28.80;91.90
3790;DHT22;1910;49.042;9.028;2022-07-23T14:37:11;29.10;93.00
3790;DHT22;1910;49.042;9.028;2022-07-23T14:39:38;28.90;92.50
3790;DHT22;1910;49.042;9.028;2022-07-23T14:42:04;28.70;92.20
3790;DHT22;1910;49.042;9.028;2022-07-23T14:44:29;28.50;92.80
3790;DHT22;1910;49.042;9.028;2022-07-23T14:46:55;28.80;93.00
3790;DHT22;1910;49.042;9.028;2022-07-23T14:49:21;29.00;92.80
3790;DHT22;1910;49.042;9.028;2022-07-23T14:51:46;29.00;93.30
3790;DHT22;1910;49.042;9.028;2022-07-23T14:56:39;29.50;92.40
3790;DHT22;1910;49.042;9.028;2022-07-23T14:59:06;29.50;92.70
3790;DHT22;1910;49.042;9.028;2022-07-23T15:01:32;29.60;92.20
3790;DHT22;1910;49.042;9.028;2022-07-23T15:03:58;29.20;91.70
3790;DHT22;1910;49.042;9.028;2022-07-23T15:06:23;29.20;92.00
3790;DHT22;1910;49.042;9.028;2022-07-23T15:08:50;29.00;91.30
3790;DHT22;1910;49.042;9.028;2022-07-23T15:11:15;29.00;91.60
3790;DHT22;1910;49.042;9.028;2022-07-23T15:13:41;29.40;92.00
3790;DHT22;1910;49.042;9.028;2022-07-23T15:16:07;29.50;91.40
3790;DHT22;1910;49.042;9.028;2022-07-23T15:18:33;29.70;92.00
3790;DHT22;1910;49.042;9.028;2022-07-23T15:20:59;29.90;91.40
3790;DHT22;1910;49.042;9.028;2022-07-23T15:23:26;29.90;90.90
3790;DHT22;1910;49.042;9.028;2022-07-23T15:25:57;29.60;92.10
3790;DHT22;1910;49.042;9.028;2022-07-23T15:30:49;29.70;91.40
3790;DHT22;1910;49.042;9.028;2022-07-23T15:35:41;29.60;91.80
3790;DHT22;1910;49.042;9.028;2022-07-23T15:38:07;29.30;91.20
3790;DHT22;1910;49.042;9.028;2022-07-23T15:40:32;28.90;91.30
3790;DHT22;1910;49.042;9.028;2022-07-23T15:42:58;28.40;92.50
3790;DHT22;1910;49.042;9.028;2022-07-23T15:45:23;28.30;92.80
3790;DHT22;1910;49.042;9.028;2022-07-23T15:47:49;28.10;93.40
3790;DHT22;1910;49.042;9.028;2022-07-23T15:50:15;28.00;94.60
3790;DHT22;1910;49.042;9.028;2022-07-23T15:52:41;27.90;94.60
3790;DHT22;1910;49.042;9.028;2022-07-23T15:55:07;27.90;95.00
3790;DHT22;1910;49.042;9.028;2022-07-23T15:57:35;27.90;95.50
3790;DHT22;1910;49.042;9.028;2022-07-23T16:00:01;28.20;94.20
3790;DHT22;1910;49.042;9.028;2022-07-23T16:02:27;28.20;94.40
3790;DHT22;1910;49.042;9.028;2022-07-23T16:04:52;28.40;95.20
3790;DHT22;1910;49.042;9.028;2022-07-23T16:07:19;28.40;94.40
3790;DHT22;1910;49.042;9.028;2022-07-23T16:09:45;28.20;94.70
3790;DHT22;1910;49.042;9.028;2022-07-23T16:14:37;27.90;95.40
3790;DHT22;1910;49.042;9.028;2022-07-23T16:17:03;27.70;96.10
3790;DHT22;1910;49.042;9.028;2022-07-23T16:19:28;27.60;96.80
3790;DHT22;1910;49.042;9.028;2022-07-23T16:24:20;27.70;96.80
3790;DHT22;1910;49.042;9.028;2022-07-23T16:26:46;28.00;96.40
3790;DHT22;1910;49.042;9.028;2022-07-23T16:29:11;28.20;96.30
3790;DHT22;1910;49.042;9.028;2022-07-23T16:31:37;28.40;96.80
3790;DHT22;1910;49.042;9.028;2022-07-23T16:36:29;28.50;94.80
3790;DHT22;1910;49.042;9.028;2022-07-23T16:41:21;28.80;95.00
3790;DHT22;1910;49.042;9.028;2022-07-23T16:46:13;28.90;94.60
3790;DHT22;1910;49.042;9.028;2022-07-23T16:48:39;28.70;95.40
3790;DHT22;1910;49.042;9.028;2022-07-23T16:51:04;28.60;95.40
3790;DHT22;1910;49.042;9.028;2022-07-23T16:53:30;28.50;94.80
3790;DHT22;1910;49.042;9.028;2022-07-23T16:58:21;28.30;94.90
3790;DHT22;1910;49.042;9.028;2022-07-23T17:00:47;28.20;95.10
3790;DHT22;1910;49.042;9.028;2022-07-23T17:03:13;28.20;95.20
3790;DHT22;1910;49.042;9.028;2022-07-23T17:05:38;28.20;95.00
3790;DHT22;1910;49.042;9.028;2022-07-23T17:08:04;28.40;95.40
3790;DHT22;1910;49.042;9.028;2022-07-23T17:15:23;28.60;94.60
3790;DHT22;1910;49.042;9.028;2022-07-23T17:17:49;28.70;95.00
3790;DHT22;1910;49.042;9.028;2022-07-23T17:20:16;28.70;94.90
3790;DHT22;1910;49.042;9.028;2022-07-23T17:22:42;28.70;95.20
3790;DHT22;1910;49.042;9.028;2022-07-23T17:25:09;28.50;95.10
3790;DHT22;1910;49.042;9.028;2022-07-23T17:27:39;28.10;95.00
3790;DHT22;1910;49.042;9.028;2022-07-23T17:30:05;27.80;95.20
3790;DHT22;1910;49.042;9.028;2022-07-23T17:32:31;27.80;95.50
3790;DHT22;1910;49.042;9.028;2022-07-23T17:34:56;27.80;96.10
3790;DHT22;1910;49.042;9.028;2022-07-23T17:39:48;27.70;96.40
3790;DHT22;1910;49.042;9.028;2022-07-23T17:47:05;27.70;96.60
3790;DHT22;1910;49.042;9.028;2022-07-23T17:49:31;27.70;97.50
3790;DHT22;1910;49.042;9.028;2022-07-23T17:52:03;27.50;98.00
3790;DHT22;1910;49.042;9.028;2022-07-23T17:54:29;27.50;97.40
3790;DHT22;1910;49.042;9.028;2022-07-23T17:56:54;27.40;97.80
3790;DHT22;1910;49.042;9.028;2022-07-23T17:59:21;27.40;98.00
3790;DHT22;1910;49.042;9.028;2022-07-23T18:01:47;27.40;98.20
3790;DHT22;1910;49.042;9.028;2022-07-23T18:04:13;27.40;99.00
3790;DHT22;1910;49.042;9.028;2022-07-23T18:06:40;27.40;99.20
3790;DHT22;1910;49.042;9.028;2022-07-23T18:09:07;27.30;99.50
3790;DHT22;1910;49.042;9.028;2022-07-23T18:11:32;27.30;99.90
3790;DHT22;1910;49.042;9.028;2022-07-23T18:16:24;27.20;99.90
3790;DHT22;1910;49.042;9.028;2022-07-23T18:18:49;27.10;99.90
3790;DHT22;1910;49.042;9.028;2022-07-23T18:23:42;26.90;99.90
3790;DHT22;1910;49.042;9.028;2022-07-23T18:26:08;26.90;99.90
3790;DHT22;1910;49.042;9.028;2022-07-23T18:28:33;26.90;99.90
3790;DHT22;1910;49.042;9.028;2022-07-23T18:30:59;26.90;99.90
3790;DHT22;1910;49.042;9.028;2022-07-23T18:33:24;26.80;99.90
3790;DHT22;1910;49.042;9.028;2022-07-23T18:35:50;26.70;99.90
3790;DHT22;1910;49.042;9.028;2022-07-23T18:38:15;26.60;99.90
3790;DHT22;1910;49.042;9.028;2022-07-23T18:40:42;26.20;99.90
3790;DHT22;1910;49.042;9.028;2022-07-23T18:43:09;26.00;99.90
3790;DHT22;1910;49.042;9.028;2022-07-23T18:45:34;25.70;99.90
3790;DHT22;1910;49.042;9.028;2022-07-23T18:48:00;25.60;99.90
3790;DHT22;1910;49.042;9.028;2022-07-23T18:50:25;25.50;99.90
3790;DHT22;1910;49.042;9.028;2022-07-23T18:52:51;25.30;99.90
3790;DHT22;1910;49.042;9.028;2022-07-23T18:55:18;25.10;99.90
3790;DHT22;1910;49.042;9.028;2022-07-23T18:57:45;25.00;99.90
3790;DHT22;1910;49.042;9.028;2022-07-23T19:00:11;24.70;99.90
3790;DHT22;1910;49.042;9.028;2022-07-23T19:02:37;24.70;99.90
3790;DHT22;1910;49.042;9.028;2022-07-23T19:05:03;24.60;99.90
3790;DHT22;1910;49.042;9.028;2022-07-23T19:07:29;24.50;99.90
3790;DHT22;1910;49.042;9.028;2022-07-23T19:09:55;24.00;99.90
3790;DHT22;1910;49.042;9.028;2022-07-23T19:12:23;23.90;99.90
3790;DHT22;1910;49.042;9.028;2022-07-23T19:14:48;23.90;99.90
3790;DHT22;1910;49.042;9.028;2022-07-23T19:17:14;23.90;99.90
3790;DHT22;1910;49.042;9.028;2022-07-23T19:19:39;23.90;99.90
3790;DHT22;1910;49.042;9.028;2022-07-23T19:22:05;23.90;99.90
3790;DHT22;1910;49.042;9.028;2022-07-23T19:24:34;23.90;99.90
3790;DHT22;1910;49.042;9.028;2022-07-23T19:27:00;23.80;99.90
3790;DHT22;1910;49.042;9.028;2022-07-23T19:29:25;23.70;99.90
3790;DHT22;1910;49.042;9.028;2022-07-23T19:31:51;23.70;99.90
3790;DHT22;1910;49.042;9.028;2022-07-23T19:34:16;23.60;99.90
3790;DHT22;1910;49.042;9.028;2022-07-23T19:36:42;23.50;99.90
3790;DHT22;1910;49.042;9.028;2022-07-23T19:39:07;23.30;99.90
3790;DHT22;1910;49.042;9.028;2022-07-23T19:41:33;23.30;99.90
3790;DHT22;1910;49.042;9.028;2022-07-23T19:43:58;23.10;99.90
3790;DHT22;1910;49.042;9.028;2022-07-23T19:46:25;23.20;99.90
3790;DHT22;1910;49.042;9.028;2022-07-23T19:48:51;23.00;99.90
3790;DHT22;1910;49.042;9.028;2022-07-23T19:51:16;23.00;99.90
3790;DHT22;1910;49.042;9.028;2022-07-23T19:53:42;23.00;99.90
3790;DHT22;1910;49.042;9.028;2022-07-23T19:56:07;23.00;99.90
3790;DHT22;1910;49.042;9.028;2022-07-23T19:58:33;22.90;99.90
3790;DHT22;1910;49.042;9.028;2022-07-23T20:00:58;22.90;99.90
3790;DHT22;1910;49.042;9.028;2022-07-23T20:03:24;22.90;99.90
3790;DHT22;1910;49.042;9.028;2022-07-23T20:05:49;22.90;99.90
3790;DHT22;1910;49.042;9.028;2022-07-23T20:08:15;22.70;99.90
3790;DHT22;1910;49.042;9.028;2022-07-23T20:10:40;22.60;99.90
3790;DHT22;1910;49.042;9.028;2022-07-23T20:13:06;22.50;99.90
3790;DHT22;1910;49.042;9.028;2022-07-23T20:15:32;22.50;99.90
3790;DHT22;1910;49.042;9.028;2022-07-23T20:17:58;22.40;99.90
3790;DHT22;1910;49.042;9.028;2022-07-23T20:20:26;22.40;99.90
3790;DHT22;1910;49.042;9.028;2022-07-23T20:22:51;22.40;99.90
3790;DHT22;1910;49.042;9.028;2022-07-23T20:25:17;22.30;99.90
3790;DHT22;1910;49.042;9.028;2022-07-23T20:27:42;22.20;99.90
3790;DHT22;1910;49.042;9.028;2022-07-23T20:30:08;22.20;99.90
3790;DHT22;1910;49.042;9.028;2022-07-23T20:32:34;22.20;99.90
3790;DHT22;1910;49.042;9.028;2022-07-23T20:34:59;22.10;99.90
3790;DHT22;1910;49.042;9.028;2022-07-23T20:37:25;22.10;99.90
3790;DHT22;1910;49.042;9.028;2022-07-23T20:39:51;22.10;99.90
3790;DHT22;1910;49.042;9.028;2022-07-23T20:42:18;22.00;99.90
3790;DHT22;1910;49.042;9.028;2022-07-23T20:44:46;22.00;99.90
3790;DHT22;1910;49.042;9.028;2022-07-23T20:47:13;22.00;99.90
3790;DHT22;1910;49.042;9.028;2022-07-23T20:49:38;21.90;99.90
3790;DHT22;1910;49.042;9.028;2022-07-23T20:52:04;21.80;99.90
3790;DHT22;1910;49.042;9.028;2022-07-23T20:54:30;21.70;99.90
3790;DHT22;1910;49.042;9.028;2022-07-23T20:56:55;21.70;99.90
3790;DHT22;1910;49.042;9.028;2022-07-23T20:59:21;21.60;99.90
3790;DHT22;1910;49.042;9.028;2022-07-23T21:01:46;21.60;99.90
3790;DHT22;1910;49.042;9.028;2022-07-23T21:04:12;21.50;99.90
3790;DHT22;1910;49.042;9.028;2022-07-23T21:06:37;21.40;99.90